createdAt,value
2023-05-11T00:02:26.849Z,100.0
2023-05-11T00:07:58.452Z,100.0
2023-05-11T00:13:30.111Z,100.0
2023-05-11T00:19:02.214Z,100.0
2023-05-11T00:24:33.879Z,100.0
2023-05-11T00:30:05.518Z,100.0
2023-05-11T00:35:36.915Z,100.0
2023-05-11T00:41:08.740Z,100.0
2023-05-11T00:46:40.516Z,100.0
2023-05-11T00:52:12.282Z,100.0
2023-05-11T00:57:43.930Z,100.0
2023-05-11T01:03:20.433Z,100.0
2023-05-11T01:08:57.459Z,100.0
2023-05-11T01:14:23.461Z,100.0
2023-05-11T01:19:55.255Z,100.0
2023-05-11T01:25:27.103Z,100.0
2023-05-11T01:30:58.678Z,100.0
2023-05-11T01:36:30.699Z,100.0
2023-05-11T01:42:02.157Z,100.0
2023-05-11T01:47:33.936Z,100.0
2023-05-11T01:53:05.575Z,100.0
2023-05-11T01:58:37.334Z,100.0
2023-05-11T02:04:13.429Z,100.0
2023-05-11T02:09:45.165Z,100.0
2023-05-11T02:15:16.903Z,100.0
2023-05-11T02:20:48.556Z,100.0
2023-05-11T02:26:20.404Z,100.0
2023-05-11T02:31:52.191Z,100.0
2023-05-11T02:37:23.940Z,100.0
2023-05-11T02:42:55.456Z,100.0
2023-05-11T02:48:27.191Z,100.0
2023-05-11T02:53:58.847Z,100.0
2023-05-11T02:59:30.727Z,100.0
2023-05-11T03:05:06.704Z,100.0
2023-05-11T03:10:38.461Z,100.0
2023-05-11T03:16:10.435Z,100.0
2023-05-11T03:21:41.907Z,100.0
2023-05-11T03:27:13.656Z,100.0
2023-05-11T03:32:45.468Z,100.0
2023-05-11T03:38:17.139Z,100.0
2023-05-11T03:43:51.849Z,100.0
2023-05-11T03:49:20.569Z,100.0
2023-05-11T03:54:52.269Z,100.0
2023-05-11T04:00:24.135Z,100.0
2023-05-11T04:06:00.202Z,100.0
2023-05-11T04:11:31.869Z,100.0
2023-05-11T04:17:03.613Z,100.0
2023-05-11T04:22:35.262Z,100.0
2023-05-11T04:28:07.182Z,100.0
2023-05-11T04:33:38.786Z,100.0
2023-05-11T04:39:10.441Z,100.0
2023-05-11T04:44:42.339Z,100.0
2023-05-11T04:50:13.909Z,100.0
2023-05-11T04:55:45.639Z,100.0
2023-05-11T05:01:17.552Z,100.0
2023-05-11T05:06:53.499Z,100.0
2023-05-11T05:12:25.088Z,100.0
2023-05-11T05:17:57.476Z,100.0
2023-05-11T05:23:28.702Z,100.0
2023-05-11T05:29:00.436Z,100.0
2023-05-11T05:34:32.085Z,100.0
2023-05-11T05:40:03.880Z,100.0
2023-05-11T05:45:35.641Z,100.0
2023-05-11T05:51:07.204Z,100.0
2023-05-11T05:56:39.863Z,100.0
2023-05-11T06:02:10.763Z,100.0
2023-05-11T06:08:08.929Z,100.0
2023-05-11T06:13:18.572Z,100.0
2023-05-11T06:18:50.504Z,100.0
2023-05-11T06:24:22.009Z,100.0
2023-05-11T06:29:53.791Z,100.0
2023-05-11T06:35:25.443Z,100.0
2023-05-11T06:40:57.366Z,100.0
2023-05-11T06:46:29.230Z,100.0
2023-05-11T06:52:01.488Z,100.0
2023-05-11T06:57:32.380Z,100.0
2023-05-11T07:03:04.380Z,100.0
2023-05-11T07:08:40.162Z,100.0
2023-05-11T07:14:11.928Z,100.0
2023-05-11T07:19:43.735Z,100.0
2023-05-11T07:25:15.483Z,100.0
2023-05-11T07:30:47.661Z,100.0
2023-05-11T07:36:18.771Z,100.0
2023-05-11T07:41:50.450Z,100.0
2023-05-11T07:47:22.323Z,100.0
2023-05-11T07:52:54.030Z,100.0
2023-05-11T07:58:25.989Z,100.0
2023-05-11T08:03:57.496Z,100.0
2023-05-11T08:09:33.500Z,100.0
2023-05-11T08:15:05.517Z,100.0
2023-05-11T08:20:37.422Z,100.0
2023-05-11T08:26:08.688Z,100.0
2023-05-11T08:31:40.724Z,100.0
2023-05-11T08:37:12.096Z,100.0
2023-05-11T08:42:43.792Z,100.0
2023-05-11T08:48:15.560Z,100.0
2023-05-11T08:53:47.302Z,100.0
2023-05-11T08:59:19.342Z,100.0
2023-05-11T09:04:50.764Z,100.0
2023-05-11T09:10:26.955Z,100.0
2023-05-11T09:15:58.659Z,100.0
2023-05-11T09:21:30.362Z,100.0
2023-05-11T09:27:02.056Z,100.0
2023-05-11T09:32:33.833Z,100.0
2023-05-11T09:38:05.823Z,100.0
2023-05-11T09:43:37.269Z,100.0
2023-05-11T09:49:09.055Z,100.0
2023-05-11T09:54:40.819Z,100.0
2023-05-11T10:00:12.422Z,100.0
2023-05-11T10:05:44.205Z,100.0
2023-05-11T10:11:20.172Z,100.0
2023-05-11T10:16:52.001Z,100.0
2023-05-11T10:22:23.670Z,100.0
2023-05-11T10:27:55.422Z,100.0
2023-05-11T10:33:27.255Z,100.0
2023-05-11T10:38:58.953Z,100.0
2023-05-11T10:44:30.738Z,100.0
2023-05-11T10:50:02.391Z,100.0
2023-05-11T10:55:34.080Z,100.0
2023-05-11T11:01:06.075Z,100.0
2023-05-11T11:06:37.521Z,100.0
2023-05-11T11:12:13.552Z,100.0
2023-05-11T11:17:45.408Z,100.0
2023-05-11T11:23:17.033Z,100.0
2023-05-11T11:28:49.947Z,100.0
2023-05-11T11:34:20.408Z,100.0
2023-05-11T11:39:52.244Z,100.0
2023-05-11T11:45:24.130Z,100.0
2023-05-11T11:50:55.766Z,100.0
2023-05-11T11:56:27.642Z,100.0
2023-05-11T12:02:00.735Z,100.0
2023-05-11T12:07:31.881Z,100.0
2023-05-11T12:13:10.073Z,100.0
2023-05-11T12:18:41.723Z,100.0
2023-05-11T12:24:13.418Z,100.0
2023-05-11T12:29:45.264Z,100.0
2023-05-11T12:35:17.334Z,100.0
2023-05-11T12:40:48.604Z,100.0
2023-05-11T12:46:20.416Z,100.0
2023-05-11T12:51:52.067Z,100.0
2023-05-11T12:57:23.724Z,100.0
2023-05-11T13:02:55.663Z,97.54
2023-05-11T13:08:27.191Z,99.01
2023-05-11T13:14:03.361Z,96.66
2023-05-11T13:19:34.961Z,99.41
2023-05-11T13:25:06.996Z,97.69
2023-05-11T13:30:39.571Z,95.5
2023-05-11T13:36:11.003Z,97.22
2023-05-11T13:41:42.465Z,94.87
2023-05-11T13:47:14.434Z,96.47
2023-05-11T13:52:45.987Z,94.17
2023-05-11T13:58:17.723Z,96.85
2023-05-11T14:03:49.629Z,94.42
2023-05-11T14:09:21.210Z,94.04
2023-05-11T14:14:57.283Z,89.94
2023-05-11T14:20:29.986Z,94.23
2023-05-11T14:26:00.788Z,92.2
2023-05-11T14:31:32.781Z,93.11
2023-05-11T14:37:04.177Z,92.45
2023-05-11T14:42:36.101Z,93.11
2023-05-11T14:48:07.714Z,94.88
2023-05-11T14:53:39.380Z,91.31
2023-05-11T14:59:11.498Z,92.75
2023-05-11T15:04:43.439Z,92.33
2023-05-11T15:10:15.264Z,89.2
2023-05-11T15:15:52.310Z,89.86
2023-05-11T15:21:22.994Z,92.86
2023-05-11T15:26:55.125Z,89.55
2023-05-11T15:32:28.007Z,93.05
2023-05-11T15:37:58.292Z,91.29
2023-05-11T15:43:29.925Z,88.2
2023-05-11T15:49:01.758Z,90.02
2023-05-11T15:54:36.531Z,89.58
2023-05-11T16:00:05.223Z,89.66
2023-05-11T16:05:36.957Z,91.15
2023-05-11T16:11:08.679Z,90.68
2023-05-11T16:16:46.904Z,92.32
2023-05-11T16:22:18.493Z,91.87
2023-05-11T16:27:50.189Z,92.72
2023-05-11T16:33:22.086Z,94.26
2023-05-11T16:38:53.751Z,95.53
2023-05-11T16:44:25.812Z,97.48
2023-05-11T16:49:57.116Z,97.09
2023-05-11T16:55:28.858Z,96.69
2023-05-11T17:01:00.657Z,94.14
2023-05-11T17:06:32.253Z,92.95
2023-05-11T17:12:04.023Z,96.41
2023-05-11T17:17:40.240Z,93.87
2023-05-11T17:23:11.916Z,97.04
2023-05-11T17:28:43.528Z,93.67
2023-05-11T17:34:15.533Z,95.08
2023-05-11T17:39:48.469Z,97.57
2023-05-11T17:45:19.210Z,96.32
2023-05-11T17:50:50.507Z,97.46
2023-05-11T17:56:22.535Z,97.75
2023-05-11T18:01:54.058Z,99.04
2023-05-11T18:07:25.622Z,100.0
2023-05-11T18:12:57.747Z,100.0
2023-05-11T18:18:33.666Z,100.0
2023-05-11T18:24:05.365Z,100.0
2023-05-11T18:29:37.891Z,100.0
2023-05-11T18:35:08.719Z,100.0
2023-05-11T18:40:40.713Z,100.0
2023-05-11T18:46:12.119Z,100.0
2023-05-11T18:51:43.944Z,100.0
2023-05-11T18:57:15.599Z,100.0
2023-05-11T19:02:47.930Z,100.0
2023-05-11T19:08:19.261Z,100.0
2023-05-11T19:13:51.541Z,100.0
2023-05-11T19:19:27.388Z,100.0
2023-05-11T19:24:59.356Z,100.0
2023-05-11T19:30:30.518Z,100.0
2023-05-11T19:36:02.207Z,100.0
2023-05-11T19:41:33.936Z,100.0
2023-05-11T19:47:05.568Z,100.0
2023-05-11T19:52:37.331Z,100.0
2023-05-11T19:58:08.962Z,100.0
2023-05-11T20:03:40.887Z,100.0
2023-05-11T20:09:12.488Z,100.0
2023-05-11T20:14:44.194Z,100.0
2023-05-11T20:20:21.784Z,100.0
2023-05-11T20:25:51.939Z,100.0
2023-05-11T20:31:23.686Z,100.0
2023-05-11T20:36:55.410Z,100.0
2023-05-11T20:42:27.073Z,100.0
2023-05-11T20:47:58.943Z,100.0
2023-05-11T20:53:30.725Z,100.0
2023-05-11T20:59:02.346Z,100.0
2023-05-11T21:04:34.410Z,100.0
2023-05-11T21:10:05.768Z,100.0
2023-05-11T21:15:37.548Z,100.0
2023-05-11T21:21:13.611Z,100.0
2023-05-11T21:26:48.433Z,100.0
2023-05-11T21:32:17.226Z,100.0
2023-05-11T21:37:48.816Z,100.0
2023-05-11T21:43:20.649Z,100.0
2023-05-11T21:48:52.314Z,100.0
2023-05-11T21:54:23.968Z,100.0
2023-05-11T21:59:55.872Z,100.0
2023-05-11T22:05:27.432Z,100.0
2023-05-11T22:10:59.283Z,100.0
2023-05-11T22:16:31.069Z,100.0
2023-05-11T22:22:07.060Z,100.0
2023-05-11T22:27:38.930Z,100.0
2023-05-11T22:33:10.499Z,100.0
2023-05-11T22:38:42.168Z,100.0
2023-05-11T22:44:13.944Z,100.0
2023-05-11T22:49:45.776Z,100.0
2023-05-11T22:55:18.309Z,100.0
2023-05-11T23:00:49.126Z,100.0
2023-05-11T23:06:20.832Z,100.0
2023-05-11T23:11:52.440Z,100.0
2023-05-11T23:17:24.461Z,100.0
2023-05-11T23:23:00.344Z,100.0
2023-05-11T23:28:32.030Z,100.0
2023-05-11T23:34:03.761Z,100.0
2023-05-11T23:39:35.579Z,100.0
2023-05-11T23:45:07.275Z,100.0
2023-05-11T23:50:38.924Z,100.0
2023-05-11T23:56:10.632Z,100.0
